Portada
METAR-TAF:

METAR-TAF

Aeroports :

Tarawa, Kiribati

latitud: 01-21N, longitud: 172-55E, altitud: 2 m

Observació

L'informe es va fer fa 16 minuts, a les 16:00 UTC
Vent 4 kt del Est
Temperatura 28°C
Humitat 79%
Pressió 1005 hPa
Visibilitat 10 km o més
Escasses núvols a una alçada de 2000 ft

METAR: NGTA 081600Z 08004KT 9999 FEW020 28/24 Q1005

Hora: 06:16 (16:16 UTC)

Pronòstic

L'informe es va fer fa 4 hores i 55 minuts, a les 11:21 UTC
Pronòstic vàlid del 08 a les 12 UTC al 09 a les 12 UTC
Vent 5 kt del Est
Visibilitat 10 km o més
Escasses núvols a una alçada de 2000 ft
Probabilitat 30% :
Temporalment
l' 08 a les 12 UTC al 08 a les 18 UTC
Visibilitat: 5000 m
Cel ennuvolat a una alçada de 1600 ft
Escasses núvols a una alçada de 1800 ft, Cumulonimbus.
xàfecs de pluja

TAF: NGTA 081121Z 0812/0912 09005KT 9999 FEW020 PROB30 TEMPO 0812/0818 5000 SHRA BKN016 FEW018CB

Observacions i pronòstics meteorològics de més de 4000 aeroports (METAR i TAF).

Les estacions disponibles són els punts grocs i vermells al mapa.

Posi el ratolí al punt desitjat per veure el nom de l'estació.

Feu clic per veure les observacions i els pronòstics meteorològics.

Per canviar el mapa: feu clic els botons verds amb una creu de color negre per apropar; al botó verd amb un guió per allunyar la imatge; o en les fletxes verdes per a mapes adjacents.


METAR-TAF: